sensor_id;sensor_type;location;lat;lon;timestamp;temperature;humidity
8002;DHT22;4046;48.774;8.732;2023-01-28T00:00:49;23.00;71.20
8002;DHT22;4046;48.774;8.732;2023-01-28T00:03:16;23.00;71.20
8002;DHT22;4046;48.774;8.732;2023-01-28T00:05:42;23.00;71.30
8002;DHT22;4046;48.774;8.732;2023-01-28T00:08:08;23.00;71.20
8002;DHT22;4046;48.774;8.732;2023-01-28T00:10:36;23.00;71.20
8002;DHT22;4046;48.774;8.732;2023-01-28T00:13:05;23.00;71.20
8002;DHT22;4046;48.774;8.732;2023-01-28T00:15:31;23.00;71.20
8002;DHT22;4046;48.774;8.732;2023-01-28T00:17:58;23.00;71.20
8002;DHT22;4046;48.774;8.732;2023-01-28T00:20:24;23.00;71.20
8002;DHT22;4046;48.774;8.732;2023-01-28T00:22:50;23.00;71.20
8002;DHT22;4046;48.774;8.732;2023-01-28T00:25:16;23.00;71.30
8002;DHT22;4046;48.774;8.732;2023-01-28T00:27:42;23.00;71.20
8002;DHT22;4046;48.774;8.732;2023-01-28T00:30:10;23.00;71.50
8002;DHT22;4046;48.774;8.732;2023-01-28T00:32:36;23.00;71.20
8002;DHT22;4046;48.774;8.732;2023-01-28T00:35:03;23.00;71.20
8002;DHT22;4046;48.774;8.732;2023-01-28T00:37:29;23.00;71.20
8002;DHT22;4046;48.774;8.732;2023-01-28T00:39:55;23.00;71.20
8002;DHT22;4046;48.774;8.732;2023-01-28T00:42:21;23.00;71.20
8002;DHT22;4046;48.774;8.732;2023-01-28T00:44:47;23.00;71.20
8002;DHT22;4046;48.774;8.732;2023-01-28T00:47:13;23.00;71.20
8002;DHT22;4046;48.774;8.732;2023-01-28T00:49:40;23.00;71.20
8002;DHT22;4046;48.774;8.732;2023-01-28T00:52:06;23.00;71.20
8002;DHT22;4046;48.774;8.732;2023-01-28T00:54:32;23.00;71.30
8002;DHT22;4046;48.774;8.732;2023-01-28T00:56:58;23.00;71.20
8002;DHT22;4046;48.774;8.732;2023-01-28T00:59:24;23.00;71.20
8002;DHT22;4046;48.774;8.732;2023-01-28T01:01:51;23.00;71.20
8002;DHT22;4046;48.774;8.732;2023-01-28T01:04:18;23.00;71.20
8002;DHT22;4046;48.774;8.732;2023-01-28T01:06:51;23.00;71.20
8002;DHT22;4046;48.774;8.732;2023-01-28T01:09:18;23.00;71.20
8002;DHT22;4046;48.774;8.732;2023-01-28T01:11:44;23.00;71.20
8002;DHT22;4046;48.774;8.732;2023-01-28T01:14:10;23.00;71.20
8002;DHT22;4046;48.774;8.732;2023-01-28T01:16:36;23.00;71.20
8002;DHT22;4046;48.774;8.732;2023-01-28T01:19:03;23.00;71.20
8002;DHT22;4046;48.774;8.732;2023-01-28T01:21:30;23.00;71.20
8002;DHT22;4046;48.774;8.732;2023-01-28T01:23:57;23.00;71.20
8002;DHT22;4046;48.774;8.732;2023-01-28T01:26:23;23.00;71.20
8002;DHT22;4046;48.774;8.732;2023-01-28T01:28:52;23.00;71.20
8002;DHT22;4046;48.774;8.732;2023-01-28T01:31:20;23.00;71.20
8002;DHT22;4046;48.774;8.732;2023-01-28T01:33:48;23.00;71.20
8002;DHT22;4046;48.774;8.732;2023-01-28T01:36:15;23.00;71.10
8002;DHT22;4046;48.774;8.732;2023-01-28T01:38:43;23.00;71.20
8002;DHT22;4046;48.774;8.732;2023-01-28T01:41:22;23.00;71.20
8002;DHT22;4046;48.774;8.732;2023-01-28T01:43:51;23.00;71.20
8002;DHT22;4046;48.774;8.732;2023-01-28T01:46:22;23.00;71.10
8002;DHT22;4046;48.774;8.732;2023-01-28T01:48:50;23.00;71.20
8002;DHT22;4046;48.774;8.732;2023-01-28T01:51:21;23.00;71.20
8002;DHT22;4046;48.774;8.732;2023-01-28T01:53:51;23.00;71.20
8002;DHT22;4046;48.774;8.732;2023-01-28T01:56:21;23.00;71.20
8002;DHT22;4046;48.774;8.732;2023-01-28T01:58:50;23.00;71.20
8002;DHT22;4046;48.774;8.732;2023-01-28T02:01:25;23.00;71.10
8002;DHT22;4046;48.774;8.732;2023-01-28T02:04:09;23.00;71.20
8002;DHT22;4046;48.774;8.732;2023-01-28T02:06:37;23.00;71.20
8002;DHT22;4046;48.774;8.732;2023-01-28T02:09:25;23.00;71.20
8002;DHT22;4046;48.774;8.732;2023-01-28T02:11:59;23.00;71.20
8002;DHT22;4046;48.774;8.732;2023-01-28T02:14:28;23.00;71.20
8002;DHT22;4046;48.774;8.732;2023-01-28T02:17:00;23.00;71.20
8002;DHT22;4046;48.774;8.732;2023-01-28T02:19:37;23.00;71.20
8002;DHT22;4046;48.774;8.732;2023-01-28T02:28:00;23.00;71.20
8002;DHT22;4046;48.774;8.732;2023-01-28T02:30:35;23.00;71.20
8002;DHT22;4046;48.774;8.732;2023-01-28T02:33:21;23.00;71.20
8002;DHT22;4046;48.774;8.732;2023-01-28T02:35:52;23.00;71.20
8002;DHT22;4046;48.774;8.732;2023-01-28T02:38:34;23.00;71.20
8002;DHT22;4046;48.774;8.732;2023-01-28T02:41:05;23.00;71.20
8002;DHT22;4046;48.774;8.732;2023-01-28T02:43:40;23.00;71.20
8002;DHT22;4046;48.774;8.732;2023-01-28T02:46:34;23.00;71.20
8002;DHT22;4046;48.774;8.732;2023-01-28T02:49:29;23.00;71.20
8002;DHT22;4046;48.774;8.732;2023-01-28T02:55:20;23.00;71.20
8002;DHT22;4046;48.774;8.732;2023-01-28T03:03:28;23.00;71.20
8002;DHT22;4046;48.774;8.732;2023-01-28T03:06:07;23.00;71.20
8002;DHT22;4046;48.774;8.732;2023-01-28T03:08:50;23.10;71.30
8002;DHT22;4046;48.774;8.732;2023-01-28T03:11:41;23.00;71.20
8002;DHT22;4046;48.774;8.732;2023-01-28T03:14:30;23.00;71.20
8002;DHT22;4046;48.774;8.732;2023-01-28T03:17:23;23.00;71.20
8002;DHT22;4046;48.774;8.732;2023-01-28T03:20:11;23.10;71.30
8002;DHT22;4046;48.774;8.732;2023-01-28T03:22:59;23.00;71.20
8002;DHT22;4046;48.774;8.732;2023-01-28T03:25:47;23.00;71.20
8002;DHT22;4046;48.774;8.732;2023-01-28T03:28:35;23.00;71.20
8002;DHT22;4046;48.774;8.732;2023-01-28T03:31:22;23.00;71.20
8002;DHT22;4046;48.774;8.732;2023-01-28T03:34:09;23.00;71.20
8002;DHT22;4046;48.774;8.732;2023-01-28T03:36:55;23.00;71.20
8002;DHT22;4046;48.774;8.732;2023-01-28T03:39:24;23.00;71.20
8002;DHT22;4046;48.774;8.732;2023-01-28T03:42:10;23.00;71.20
8002;DHT22;4046;48.774;8.732;2023-01-28T03:44:36;23.10;71.30
8002;DHT22;4046;48.774;8.732;2023-01-28T03:47:20;23.00;71.20
8002;DHT22;4046;48.774;8.732;2023-01-28T03:49:48;23.10;71.30
8002;DHT22;4046;48.774;8.732;2023-01-28T03:52:16;23.10;71.30
8002;DHT22;4046;48.774;8.732;2023-01-28T03:54:47;23.10;71.30
8002;DHT22;4046;48.774;8.732;2023-01-28T03:57:14;23.10;71.30
8002;DHT22;4046;48.774;8.732;2023-01-28T03:59:41;23.10;71.30
8002;DHT22;4046;48.774;8.732;2023-01-28T04:02:08;23.10;71.30
8002;DHT22;4046;48.774;8.732;2023-01-28T04:04:39;23.10;71.30
8002;DHT22;4046;48.774;8.732;2023-01-28T04:07:07;23.10;71.30
8002;DHT22;4046;48.774;8.732;2023-01-28T04:09:36;23.10;71.30
8002;DHT22;4046;48.774;8.732;2023-01-28T04:12:03;23.10;71.30
8002;DHT22;4046;48.774;8.732;2023-01-28T04:14:29;23.10;71.30
8002;DHT22;4046;48.774;8.732;2023-01-28T04:16:56;23.10;71.30
8002;DHT22;4046;48.774;8.732;2023-01-28T04:19:22;23.10;71.30
8002;DHT22;4046;48.774;8.732;2023-01-28T04:21:49;23.10;71.30
8002;DHT22;4046;48.774;8.732;2023-01-28T04:24:16;23.10;71.30
8002;DHT22;4046;48.774;8.732;2023-01-28T04:26:42;23.10;71.30
8002;DHT22;4046;48.774;8.732;2023-01-28T04:29:08;23.10;71.30
8002;DHT22;4046;48.774;8.732;2023-01-28T04:31:34;23.10;71.30
8002;DHT22;4046;48.774;8.732;2023-01-28T04:34:00;23.10;71.30
8002;DHT22;4046;48.774;8.732;2023-01-28T04:36:27;23.10;71.30
8002;DHT22;4046;48.774;8.732;2023-01-28T04:38:53;23.10;71.30
8002;DHT22;4046;48.774;8.732;2023-01-28T04:41:19;23.10;71.30
8002;DHT22;4046;48.774;8.732;2023-01-28T04:43:46;23.10;71.30
8002;DHT22;4046;48.774;8.732;2023-01-28T04:46:15;23.10;71.30
8002;DHT22;4046;48.774;8.732;2023-01-28T04:48:41;23.10;71.30
8002;DHT22;4046;48.774;8.732;2023-01-28T04:51:08;23.10;71.30
8002;DHT22;4046;48.774;8.732;2023-01-28T04:53:34;23.10;71.30
8002;DHT22;4046;48.774;8.732;2023-01-28T04:56:00;23.10;71.20
8002;DHT22;4046;48.774;8.732;2023-01-28T04:58:26;23.10;71.30
8002;DHT22;4046;48.774;8.732;2023-01-28T05:00:57;23.10;71.30
8002;DHT22;4046;48.774;8.732;2023-01-28T05:03:23;23.10;71.30
8002;DHT22;4046;48.774;8.732;2023-01-28T05:05:50;23.10;71.20
8002;DHT22;4046;48.774;8.732;2023-01-28T05:08:16;23.10;71.30
8002;DHT22;4046;48.774;8.732;2023-01-28T05:10:43;23.10;71.30
8002;DHT22;4046;48.774;8.732;2023-01-28T05:13:09;23.10;71.30
8002;DHT22;4046;48.774;8.732;2023-01-28T05:15:35;23.10;71.30
8002;DHT22;4046;48.774;8.732;2023-01-28T05:18:02;23.10;71.30
8002;DHT22;4046;48.774;8.732;2023-01-28T05:20:28;23.10;71.20
8002;DHT22;4046;48.774;8.732;2023-01-28T05:22:54;23.10;71.30
8002;DHT22;4046;48.774;8.732;2023-01-28T05:25:21;23.10;71.30
8002;DHT22;4046;48.774;8.732;2023-01-28T05:27:51;23.10;71.30
8002;DHT22;4046;48.774;8.732;2023-01-28T05:30:18;23.10;71.30
8002;DHT22;4046;48.774;8.732;2023-01-28T05:32:45;23.10;71.30
8002;DHT22;4046;48.774;8.732;2023-01-28T05:35:11;23.20;71.40
8002;DHT22;4046;48.774;8.732;2023-01-28T05:37:37;23.20;71.40
8002;DHT22;4046;48.774;8.732;2023-01-28T05:40:04;23.20;71.30
8002;DHT22;4046;48.774;8.732;2023-01-28T05:42:30;23.10;71.30
8002;DHT22;4046;48.774;8.732;2023-01-28T05:44:56;23.10;71.30
8002;DHT22;4046;48.774;8.732;2023-01-28T05:47:22;23.20;71.40
8002;DHT22;4046;48.774;8.732;2023-01-28T05:49:49;23.20;71.40
8002;DHT22;4046;48.774;8.732;2023-01-28T05:52:15;23.20;71.40
8002;DHT22;4046;48.774;8.732;2023-01-28T05:54:41;23.20;71.30
8002;DHT22;4046;48.774;8.732;2023-01-28T05:57:07;23.10;71.30
8002;DHT22;4046;48.774;8.732;2023-01-28T05:59:33;23.20;71.40
8002;DHT22;4046;48.774;8.732;2023-01-28T06:01:59;23.10;71.30
8002;DHT22;4046;48.774;8.732;2023-01-28T06:04:26;23.20;71.40
8002;DHT22;4046;48.774;8.732;2023-01-28T06:06:52;23.10;71.30
8002;DHT22;4046;48.774;8.732;2023-01-28T06:09:18;23.20;71.30
8002;DHT22;4046;48.774;8.732;2023-01-28T06:11:44;23.20;71.40
8002;DHT22;4046;48.774;8.732;2023-01-28T06:14:11;23.20;71.40
8002;DHT22;4046;48.774;8.732;2023-01-28T06:16:37;23.20;71.40
8002;DHT22;4046;48.774;8.732;2023-01-28T06:19:03;23.20;71.40
8002;DHT22;4046;48.774;8.732;2023-01-28T06:21:30;23.20;71.30
8002;DHT22;4046;48.774;8.732;2023-01-28T06:23:56;23.20;71.40
8002;DHT22;4046;48.774;8.732;2023-01-28T06:26:22;23.20;71.40
8002;DHT22;4046;48.774;8.732;2023-01-28T06:28:48;23.20;71.40
8002;DHT22;4046;48.774;8.732;2023-01-28T06:31:14;23.20;71.40
8002;DHT22;4046;48.774;8.732;2023-01-28T06:33:41;23.20;71.40
8002;DHT22;4046;48.774;8.732;2023-01-28T06:36:07;23.20;71.40
8002;DHT22;4046;48.774;8.732;2023-01-28T06:38:33;23.20;71.40
8002;DHT22;4046;48.774;8.732;2023-01-28T06:41:00;23.20;71.40
8002;DHT22;4046;48.774;8.732;2023-01-28T06:43:26;23.20;71.30
8002;DHT22;4046;48.774;8.732;2023-01-28T06:45:59;23.20;71.40
8002;DHT22;4046;48.774;8.732;2023-01-28T06:48:26;23.20;71.30
8002;DHT22;4046;48.774;8.732;2023-01-28T06:50:52;23.20;71.40
8002;DHT22;4046;48.774;8.732;2023-01-28T06:53:19;23.20;71.30
8002;DHT22;4046;48.774;8.732;2023-01-28T06:55:45;23.20;71.40
8002;DHT22;4046;48.774;8.732;2023-01-28T06:58:12;23.20;71.40
8002;DHT22;4046;48.774;8.732;2023-01-28T07:00:38;23.20;71.40
8002;DHT22;4046;48.774;8.732;2023-01-28T07:03:04;23.20;71.40
8002;DHT22;4046;48.774;8.732;2023-01-28T07:05:31;23.20;71.40
8002;DHT22;4046;48.774;8.732;2023-01-28T07:07:57;23.20;71.40
8002;DHT22;4046;48.774;8.732;2023-01-28T07:10:23;23.20;71.40
8002;DHT22;4046;48.774;8.732;2023-01-28T07:12:49;23.20;71.40
8002;DHT22;4046;48.774;8.732;2023-01-28T07:15:16;23.20;71.30
8002;DHT22;4046;48.774;8.732;2023-01-28T07:17:43;23.20;71.40
8002;DHT22;4046;48.774;8.732;2023-01-28T07:20:12;23.20;71.40
8002;DHT22;4046;48.774;8.732;2023-01-28T07:22:40;23.20;71.40
8002;DHT22;4046;48.774;8.732;2023-01-28T07:25:07;23.20;71.40
8002;DHT22;4046;48.774;8.732;2023-01-28T07:27:34;23.20;71.30
8002;DHT22;4046;48.774;8.732;2023-01-28T07:30:00;23.20;71.40
8002;DHT22;4046;48.774;8.732;2023-01-28T07:32:27;23.20;71.40
8002;DHT22;4046;48.774;8.732;2023-01-28T07:34:53;23.20;71.40
8002;DHT22;4046;48.774;8.732;2023-01-28T07:37:20;23.20;71.40
8002;DHT22;4046;48.774;8.732;2023-01-28T07:39:46;23.20;71.40
8002;DHT22;4046;48.774;8.732;2023-01-28T07:42:12;23.20;71.40
8002;DHT22;4046;48.774;8.732;2023-01-28T07:44:39;23.20;71.40
8002;DHT22;4046;48.774;8.732;2023-01-28T07:47:05;23.20;71.40
8002;DHT22;4046;48.774;8.732;2023-01-28T07:49:34;23.10;71.30
8002;DHT22;4046;48.774;8.732;2023-01-28T07:52:01;23.10;71.30
8002;DHT22;4046;48.774;8.732;2023-01-28T07:54:27;23.00;71.30
8002;DHT22;4046;48.774;8.732;2023-01-28T07:56:54;23.00;71.40
8002;DHT22;4046;48.774;8.732;2023-01-28T07:59:21;23.00;71.40
8002;DHT22;4046;48.774;8.732;2023-01-28T08:01:47;22.90;71.30
8002;DHT22;4046;48.774;8.732;2023-01-28T08:04:13;22.90;71.40
8002;DHT22;4046;48.774;8.732;2023-01-28T08:06:40;22.80;71.40
8002;DHT22;4046;48.774;8.732;2023-01-28T08:09:07;22.80;71.40
8002;DHT22;4046;48.774;8.732;2023-01-28T08:11:36;22.80;71.50
8002;DHT22;4046;48.774;8.732;2023-01-28T08:14:02;22.70;71.40
8002;DHT22;4046;48.774;8.732;2023-01-28T08:16:28;22.70;71.40
8002;DHT22;4046;48.774;8.732;2023-01-28T08:18:54;22.70;71.40
8002;DHT22;4046;48.774;8.732;2023-01-28T08:21:21;22.70;71.40
8002;DHT22;4046;48.774;8.732;2023-01-28T08:23:47;22.70;71.40
8002;DHT22;4046;48.774;8.732;2023-01-28T08:26:14;22.70;71.50
8002;DHT22;4046;48.774;8.732;2023-01-28T08:28:40;22.60;71.40
8002;DHT22;4046;48.774;8.732;2023-01-28T08:31:06;22.60;71.40
8002;DHT22;4046;48.774;8.732;2023-01-28T08:33:32;22.60;71.50
8002;DHT22;4046;48.774;8.732;2023-01-28T08:36:02;22.60;71.50
8002;DHT22;4046;48.774;8.732;2023-01-28T08:38:29;22.60;71.50
8002;DHT22;4046;48.774;8.732;2023-01-28T08:40:55;22.60;71.50
8002;DHT22;4046;48.774;8.732;2023-01-28T08:43:22;22.50;71.30
8002;DHT22;4046;48.774;8.732;2023-01-28T08:45:49;22.50;71.40
8002;DHT22;4046;48.774;8.732;2023-01-28T08:48:17;22.50;71.40
8002;DHT22;4046;48.774;8.732;2023-01-28T08:50:43;22.50;71.40
8002;DHT22;4046;48.774;8.732;2023-01-28T08:53:12;22.40;71.30
8002;DHT22;4046;48.774;8.732;2023-01-28T08:55:38;22.50;71.40
8002;DHT22;4046;48.774;8.732;2023-01-28T08:58:06;22.40;71.40
8002;DHT22;4046;48.774;8.732;2023-01-28T09:00:34;22.40;71.40
8002;DHT22;4046;48.774;8.732;2023-01-28T09:03:00;22.40;71.40
8002;DHT22;4046;48.774;8.732;2023-01-28T09:05:26;22.40;71.40
8002;DHT22;4046;48.774;8.732;2023-01-28T09:07:52;22.40;72.20
8002;DHT22;4046;48.774;8.732;2023-01-28T09:10:18;22.40;71.40
8002;DHT22;4046;48.774;8.732;2023-01-28T09:12:47;22.40;71.50
8002;DHT22;4046;48.774;8.732;2023-01-28T09:15:14;22.40;71.50
8002;DHT22;4046;48.774;8.732;2023-01-28T09:17:40;22.30;71.40
8002;DHT22;4046;48.774;8.732;2023-01-28T09:20:06;22.40;71.50
8002;DHT22;4046;48.774;8.732;2023-01-28T09:22:33;22.30;71.40
8002;DHT22;4046;48.774;8.732;2023-01-28T09:24:59;22.30;71.40
8002;DHT22;4046;48.774;8.732;2023-01-28T09:27:25;22.30;71.50
8002;DHT22;4046;48.774;8.732;2023-01-28T09:29:51;22.30;71.50
8002;DHT22;4046;48.774;8.732;2023-01-28T09:32:18;22.30;71.50
8002;DHT22;4046;48.774;8.732;2023-01-28T09:34:44;22.30;71.50
8002;DHT22;4046;48.774;8.732;2023-01-28T09:37:10;22.30;71.50
8002;DHT22;4046;48.774;8.732;2023-01-28T09:39:37;22.30;71.50
8002;DHT22;4046;48.774;8.732;2023-01-28T09:42:16;22.30;71.50
8002;DHT22;4046;48.774;8.732;2023-01-28T09:48:02;22.20;71.40
8002;DHT22;4046;48.774;8.732;2023-01-28T09:50:38;22.20;71.40
8002;DHT22;4046;48.774;8.732;2023-01-28T09:53:19;22.20;71.40
8002;DHT22;4046;48.774;8.732;2023-01-28T09:55:49;22.20;71.40
8002;DHT22;4046;48.774;8.732;2023-01-28T09:58:17;22.20;71.40
8002;DHT22;4046;48.774;8.732;2023-01-28T10:11:33;22.10;71.40
8002;DHT22;4046;48.774;8.732;2023-01-28T10:14:12;22.10;71.40
8002;DHT22;4046;48.774;8.732;2023-01-28T10:16:48;22.10;71.40
8002;DHT22;4046;48.774;8.732;2023-01-28T10:19:22;22.10;71.40
8002;DHT22;4046;48.774;8.732;2023-01-28T10:24:28;22.10;71.40
8002;DHT22;4046;48.774;8.732;2023-01-28T10:26:57;22.10;71.40
8002;DHT22;4046;48.774;8.732;2023-01-28T10:29:27;22.10;71.40
8002;DHT22;4046;48.774;8.732;2023-01-28T10:34:39;22.10;71.30
8002;DHT22;4046;48.774;8.732;2023-01-28T10:37:05;22.10;71.30
8002;DHT22;4046;48.774;8.732;2023-01-28T10:39:32;22.10;71.40
8002;DHT22;4046;48.774;8.732;2023-01-28T10:41:58;22.10;71.30
8002;DHT22;4046;48.774;8.732;2023-01-28T10:44:31;22.10;71.30
8002;DHT22;4046;48.774;8.732;2023-01-28T10:47:03;22.10;71.30
8002;DHT22;4046;48.774;8.732;2023-01-28T10:49:48;22.10;71.30
8002;DHT22;4046;48.774;8.732;2023-01-28T10:52:16;22.10;71.30
8002;DHT22;4046;48.774;8.732;2023-01-28T10:54:43;22.00;71.20
8002;DHT22;4046;48.774;8.732;2023-01-28T10:57:12;21.80;71.10
8002;DHT22;4046;48.774;8.732;2023-01-28T10:59:40;21.80;71.30
8002;DHT22;4046;48.774;8.732;2023-01-28T11:05:19;21.50;70.80
8002;DHT22;4046;48.774;8.732;2023-01-28T11:08:20;21.60;71.00
8002;DHT22;4046;48.774;8.732;2023-01-28T11:10:47;21.60;70.90
8002;DHT22;4046;48.774;8.732;2023-01-28T11:13:17;21.60;70.90
8002;DHT22;4046;48.774;8.732;2023-01-28T11:15:49;21.70;71.00
8002;DHT22;4046;48.774;8.732;2023-01-28T11:18:30;21.80;71.00
8002;DHT22;4046;48.774;8.732;2023-01-28T11:21:00;21.80;71.00
8002;DHT22;4046;48.774;8.732;2023-01-28T11:23:34;21.80;71.00
8002;DHT22;4046;48.774;8.732;2023-01-28T11:26:06;21.80;71.00
8002;DHT22;4046;48.774;8.732;2023-01-28T11:28:34;21.90;71.00
8002;DHT22;4046;48.774;8.732;2023-01-28T11:31:02;21.90;71.00
8002;DHT22;4046;48.774;8.732;2023-01-28T11:33:36;21.90;71.10
8002;DHT22;4046;48.774;8.732;2023-01-28T11:38:34;21.90;71.00
8002;DHT22;4046;48.774;8.732;2023-01-28T11:41:00;22.00;71.10
8002;DHT22;4046;48.774;8.732;2023-01-28T11:43:29;21.90;71.00
8002;DHT22;4046;48.774;8.732;2023-01-28T11:46:20;21.90;71.00
8002;DHT22;4046;48.774;8.732;2023-01-28T11:56:48;22.00;71.20
8002;DHT22;4046;48.774;8.732;2023-01-28T11:59:55;22.00;71.20
8002;DHT22;4046;48.774;8.732;2023-01-28T12:02:42;22.00;71.30
8002;DHT22;4046;48.774;8.732;2023-01-28T12:05:33;22.00;71.20
8002;DHT22;4046;48.774;8.732;2023-01-28T12:08:22;22.00;71.20
8002;DHT22;4046;48.774;8.732;2023-01-28T12:11:01;22.00;71.20
8002;DHT22;4046;48.774;8.732;2023-01-28T12:13:42;22.00;71.20
8002;DHT22;4046;48.774;8.732;2023-01-28T12:22:22;22.00;71.20
8002;DHT22;4046;48.774;8.732;2023-01-28T12:25:19;22.00;71.30
8002;DHT22;4046;48.774;8.732;2023-01-28T12:45:29;22.00;71.30
8002;DHT22;4046;48.774;8.732;2023-01-28T12:48:06;22.00;71.30
8002;DHT22;4046;48.774;8.732;2023-01-28T12:50:48;21.90;71.30
8002;DHT22;4046;48.774;8.732;2023-01-28T12:56:24;21.90;71.20
8002;DHT22;4046;48.774;8.732;2023-01-28T12:59:14;21.90;71.20
8002;DHT22;4046;48.774;8.732;2023-01-28T13:01:48;21.90;71.20
8002;DHT22;4046;48.774;8.732;2023-01-28T13:04:43;21.90;71.20
8002;DHT22;4046;48.774;8.732;2023-01-28T13:07:22;21.90;71.20
8002;DHT22;4046;48.774;8.732;2023-01-28T13:09:59;21.90;71.30
8002;DHT22;4046;48.774;8.732;2023-01-28T13:12:30;21.90;72.00
8002;DHT22;4046;48.774;8.732;2023-01-28T13:14:58;21.90;71.30
8002;DHT22;4046;48.774;8.732;2023-01-28T13:17:28;21.90;71.20
8002;DHT22;4046;48.774;8.732;2023-01-28T13:19:54;21.90;71.30
8002;DHT22;4046;48.774;8.732;2023-01-28T13:22:35;21.90;71.20
8002;DHT22;4046;48.774;8.732;2023-01-28T13:25:19;21.90;71.20
8002;DHT22;4046;48.774;8.732;2023-01-28T13:28:00;21.90;71.20
8002;DHT22;4046;48.774;8.732;2023-01-28T13:30:45;21.90;71.20
8002;DHT22;4046;48.774;8.732;2023-01-28T13:33:30;21.90;71.20
8002;DHT22;4046;48.774;8.732;2023-01-28T13:35:57;21.90;71.30
8002;DHT22;4046;48.774;8.732;2023-01-28T13:38:26;21.90;71.30
8002;DHT22;4046;48.774;8.732;2023-01-28T13:40:55;21.90;71.30
8002;DHT22;4046;48.774;8.732;2023-01-28T13:43:27;21.90;71.30
8002;DHT22;4046;48.774;8.732;2023-01-28T13:46:02;21.90;71.30
8002;DHT22;4046;48.774;8.732;2023-01-28T13:48:47;21.80;71.20
8002;DHT22;4046;48.774;8.732;2023-01-28T13:51:22;21.80;71.20
8002;DHT22;4046;48.774;8.732;2023-01-28T13:54:03;21.80;71.20
8002;DHT22;4046;48.774;8.732;2023-01-28T14:01:55;21.80;71.30
8002;DHT22;4046;48.774;8.732;2023-01-28T14:11:13;21.70;71.10
8002;DHT22;4046;48.774;8.732;2023-01-28T14:13:50;21.80;71.30
8002;DHT22;4046;48.774;8.732;2023-01-28T14:19:10;21.70;71.20
8002;DHT22;4046;48.774;8.732;2023-01-28T14:21:38;21.80;71.30
8002;DHT22;4046;48.774;8.732;2023-01-28T14:24:13;21.80;71.30
8002;DHT22;4046;48.774;8.732;2023-01-28T14:32:15;21.70;71.20
8002;DHT22;4046;48.774;8.732;2023-01-28T14:34:42;21.80;71.30
8002;DHT22;4046;48.774;8.732;2023-01-28T14:37:16;21.70;71.30
8002;DHT22;4046;48.774;8.732;2023-01-28T14:40:04;21.70;71.30
8002;DHT22;4046;48.774;8.732;2023-01-28T14:42:36;21.70;71.20
8002;DHT22;4046;48.774;8.732;2023-01-28T14:56:27;21.70;71.30
8002;DHT22;4046;48.774;8.732;2023-01-28T14:59:05;21.70;71.20
8002;DHT22;4046;48.774;8.732;2023-01-28T15:01:32;21.70;71.30
8002;DHT22;4046;48.774;8.732;2023-01-28T15:03:58;21.70;71.30
8002;DHT22;4046;48.774;8.732;2023-01-28T15:06:34;21.70;71.30
8002;DHT22;4046;48.774;8.732;2023-01-28T15:09:11;21.70;71.30
8002;DHT22;4046;48.774;8.732;2023-01-28T15:11:39;21.70;71.20
8002;DHT22;4046;48.774;8.732;2023-01-28T15:14:31;21.70;71.30
8002;DHT22;4046;48.774;8.732;2023-01-28T15:16:58;21.70;71.20
8002;DHT22;4046;48.774;8.732;2023-01-28T15:19:32;21.70;71.30
8002;DHT22;4046;48.774;8.732;2023-01-28T15:22:05;21.70;71.30
8002;DHT22;4046;48.774;8.732;2023-01-28T15:24:35;21.70;71.20
8002;DHT22;4046;48.774;8.732;2023-01-28T15:27:02;21.60;71.20
8002;DHT22;4046;48.774;8.732;2023-01-28T15:29:36;21.60;71.20
8002;DHT22;4046;48.774;8.732;2023-01-28T15:32:05;21.60;71.20
8002;DHT22;4046;48.774;8.732;2023-01-28T15:34:32;21.60;71.20
8002;DHT22;4046;48.774;8.732;2023-01-28T15:37:01;21.60;71.20
8002;DHT22;4046;48.774;8.732;2023-01-28T15:39:28;21.60;71.20
8002;DHT22;4046;48.774;8.732;2023-01-28T15:42:05;21.60;71.20
8002;DHT22;4046;48.774;8.732;2023-01-28T15:44:38;21.60;71.20
8002;DHT22;4046;48.774;8.732;2023-01-28T15:47:17;21.60;71.20
8002;DHT22;4046;48.774;8.732;2023-01-28T15:49:49;21.70;71.30
8002;DHT22;4046;48.774;8.732;2023-01-28T15:52:16;21.70;71.30
8002;DHT22;4046;48.774;8.732;2023-01-28T15:54:46;21.80;71.30
8002;DHT22;4046;48.774;8.732;2023-01-28T15:57:24;21.80;71.30
8002;DHT22;4046;48.774;8.732;2023-01-28T16:02:32;21.90;71.30
8002;DHT22;4046;48.774;8.732;2023-01-28T16:05:04;21.90;71.20
8002;DHT22;4046;48.774;8.732;2023-01-28T16:07:43;22.00;71.30
8002;DHT22;4046;48.774;8.732;2023-01-28T16:10:19;22.00;71.20
8002;DHT22;4046;48.774;8.732;2023-01-28T16:12:53;22.00;71.20
8002;DHT22;4046;48.774;8.732;2023-01-28T16:15:20;22.00;71.20
8002;DHT22;4046;48.774;8.732;2023-01-28T16:17:49;22.10;71.20
8002;DHT22;4046;48.774;8.732;2023-01-28T16:20:25;22.10;71.20
8002;DHT22;4046;48.774;8.732;2023-01-28T16:22:55;22.10;71.10
8002;DHT22;4046;48.774;8.732;2023-01-28T16:25:31;22.20;71.30
8002;DHT22;4046;48.774;8.732;2023-01-28T16:28:00;22.20;71.20
8002;DHT22;4046;48.774;8.732;2023-01-28T16:30:27;22.20;71.20
8002;DHT22;4046;48.774;8.732;2023-01-28T16:32:53;22.20;71.10
8002;DHT22;4046;48.774;8.732;2023-01-28T16:35:27;22.30;71.20
8002;DHT22;4046;48.774;8.732;2023-01-28T16:37:53;22.30;72.00
8002;DHT22;4046;48.774;8.732;2023-01-28T16:40:21;22.30;71.10
8002;DHT22;4046;48.774;8.732;2023-01-28T16:42:48;22.30;71.10
8002;DHT22;4046;48.774;8.732;2023-01-28T16:45:17;22.30;71.10
8002;DHT22;4046;48.774;8.732;2023-01-28T16:47:44;22.40;71.20
8002;DHT22;4046;48.774;8.732;2023-01-28T16:50:11;22.40;71.20
8002;DHT22;4046;48.774;8.732;2023-01-28T16:52:39;22.40;71.10
8002;DHT22;4046;48.774;8.732;2023-01-28T16:55:11;22.40;71.10
8002;DHT22;4046;48.774;8.732;2023-01-28T16:57:38;22.40;71.20
8002;DHT22;4046;48.774;8.732;2023-01-28T17:00:05;22.40;71.10
8002;DHT22;4046;48.774;8.732;2023-01-28T17:02:32;22.50;71.10
8002;DHT22;4046;48.774;8.732;2023-01-28T17:04:58;22.40;71.10
8002;DHT22;4046;48.774;8.732;2023-01-28T17:07:24;22.50;71.20
8002;DHT22;4046;48.774;8.732;2023-01-28T17:09:51;22.50;71.20
8002;DHT22;4046;48.774;8.732;2023-01-28T17:12:17;22.50;71.10
8002;DHT22;4046;48.774;8.732;2023-01-28T17:14:43;22.50;71.10
8002;DHT22;4046;48.774;8.732;2023-01-28T17:17:09;22.50;71.00
8002;DHT22;4046;48.774;8.732;2023-01-28T17:19:35;22.60;71.10
8002;DHT22;4046;48.774;8.732;2023-01-28T17:22:01;22.60;71.10
8002;DHT22;4046;48.774;8.732;2023-01-28T17:24:28;22.60;71.10
8002;DHT22;4046;48.774;8.732;2023-01-28T17:26:54;22.60;71.10
8002;DHT22;4046;48.774;8.732;2023-01-28T17:29:21;22.60;71.10
8002;DHT22;4046;48.774;8.732;2023-01-28T17:31:47;22.60;71.10
8002;DHT22;4046;48.774;8.732;2023-01-28T17:34:13;22.60;71.10
8002;DHT22;4046;48.774;8.732;2023-01-28T17:36:39;22.70;71.20
8002;DHT22;4046;48.774;8.732;2023-01-28T17:39:05;22.70;71.10
8002;DHT22;4046;48.774;8.732;2023-01-28T17:41:32;22.70;71.20
8002;DHT22;4046;48.774;8.732;2023-01-28T17:43:59;22.60;71.00
8002;DHT22;4046;48.774;8.732;2023-01-28T17:46:26;22.70;71.10
8002;DHT22;4046;48.774;8.732;2023-01-28T17:48:52;22.70;71.10
8002;DHT22;4046;48.774;8.732;2023-01-28T17:51:18;22.70;71.10
8002;DHT22;4046;48.774;8.732;2023-01-28T17:53:46;22.70;71.10
8002;DHT22;4046;48.774;8.732;2023-01-28T17:56:21;22.70;71.10
8002;DHT22;4046;48.774;8.732;2023-01-28T17:58:56;22.70;71.10
8002;DHT22;4046;48.774;8.732;2023-01-28T18:01:24;22.70;71.00
8002;DHT22;4046;48.774;8.732;2023-01-28T18:03:51;22.70;71.10
8002;DHT22;4046;48.774;8.732;2023-01-28T18:06:17;22.70;71.10
8002;DHT22;4046;48.774;8.732;2023-01-28T18:08:44;22.70;71.10
8002;DHT22;4046;48.774;8.732;2023-01-28T18:11:12;22.80;71.20